sensor_id;sensor_type;location;lat;lon;timestamp;pressure;altitude;pressure_sealevel;temperature;humidity
22830;BME280;11581;51.250;6.778;2023-05-25T00:02:20;101900.50;;;12.64;56.21
22830;BME280;11581;51.250;6.778;2023-05-25T00:04:49;101926.66;;;12.81;56.24
22830;BME280;11581;51.250;6.778;2023-05-25T00:07:16;101935.09;;;12.76;56.17
22830;BME280;11581;51.250;6.778;2023-05-25T00:09:43;102045.13;;;13.44;56.25
22830;BME280;11581;51.250;6.778;2023-05-25T00:12:11;101938.63;;;12.77;56.52
22830;BME280;11581;51.250;6.778;2023-05-25T00:14:38;102000.25;;;13.07;56.22
22830;BME280;11581;51.250;6.778;2023-05-25T00:17:04;101870.84;;;12.26;56.03
22830;BME280;11581;51.250;6.778;2023-05-25T00:19:34;101924.06;;;12.70;56.31
22830;BME280;11581;51.250;6.778;2023-05-25T00:22:01;102034.50;;;13.33;56.55
22830;BME280;11581;51.250;6.778;2023-05-25T00:24:29;101993.72;;;13.00;56.64
22830;BME280;11581;51.250;6.778;2023-05-25T00:26:56;102046.88;;;13.25;57.09
22830;BME280;11581;51.250;6.778;2023-05-25T00:29:23;101969.97;;;12.65;57.14
22830;BME280;11581;51.250;6.778;2023-05-25T00:31:51;102008.22;;;12.97;57.23
22830;BME280;11581;51.250;6.778;2023-05-25T00:34:18;101984.13;;;12.77;57.10
22830;BME280;11581;51.250;6.778;2023-05-25T00:36:47;102040.03;;;13.11;57.10
22830;BME280;11581;51.250;6.778;2023-05-25T00:39:15;102007.88;;;12.91;57.00
22830;BME280;11581;51.250;6.778;2023-05-25T00:41:43;101877.06;;;12.06;57.55
22830;BME280;11581;51.250;6.778;2023-05-25T00:44:13;102015.38;;;12.97;57.58
22830;BME280;11581;51.250;6.778;2023-05-25T00:46:48;101911.31;;;12.32;58.99
22830;BME280;11581;51.250;6.778;2023-05-25T00:49:21;102004.03;;;12.84;58.49
22830;BME280;11581;51.250;6.778;2023-05-25T00:51:50;101890.91;;;12.11;57.93
22830;BME280;11581;51.250;6.778;2023-05-25T00:54:18;101983.34;;;12.65;57.32
22830;BME280;11581;51.250;6.778;2023-05-25T00:56:56;102039.88;;;12.92;59.58
22830;BME280;11581;51.250;6.778;2023-05-25T00:59:30;102029.47;;;12.89;59.57
22830;BME280;11581;51.250;6.778;2023-05-25T01:02:06;102017.63;;;12.71;59.28
22830;BME280;11581;51.250;6.778;2023-05-25T01:04:37;101981.44;;;12.36;58.32
22830;BME280;11581;51.250;6.778;2023-05-25T01:07:07;102049.81;;;12.81;58.38
22830;BME280;11581;51.250;6.778;2023-05-25T01:09:40;101970.22;;;12.42;59.24
22830;BME280;11581;51.250;6.778;2023-05-25T01:12:12;101987.16;;;12.42;58.40
22830;BME280;11581;51.250;6.778;2023-05-25T01:14:40;102046.09;;;12.72;58.21
22830;BME280;11581;51.250;6.778;2023-05-25T01:17:09;102036.75;;;12.67;58.51
22830;BME280;11581;51.250;6.778;2023-05-25T01:19:36;101951.81;;;12.07;58.20
22830;BME280;11581;51.250;6.778;2023-05-25T01:22:27;102047.00;;;12.62;60.50
22830;BME280;11581;51.250;6.778;2023-05-25T01:25:00;102000.84;;;12.28;59.50
22830;BME280;11581;51.250;6.778;2023-05-25T01:30:01;102059.44;;;12.52;59.14
22830;BME280;11581;51.250;6.778;2023-05-25T01:32:30;102051.69;;;12.49;58.80
22830;BME280;11581;51.250;6.778;2023-05-25T01:34:59;101986.19;;;12.12;58.63
22830;BME280;11581;51.250;6.778;2023-05-25T01:37:26;102046.88;;;12.43;58.71
22830;BME280;11581;51.250;6.778;2023-05-25T01:39:55;101958.00;;;11.76;58.68
22830;BME280;11581;51.250;6.778;2023-05-25T01:42:21;102014.25;;;12.17;58.85
22830;BME280;11581;51.250;6.778;2023-05-25T01:44:48;102052.00;;;12.35;58.97
22830;BME280;11581;51.250;6.778;2023-05-25T01:47:21;101975.13;;;11.85;60.44
22830;BME280;11581;51.250;6.778;2023-05-25T01:50:06;102072.94;;;12.30;61.26
22830;BME280;11581;51.250;6.778;2023-05-25T01:53:09;101927.09;;;11.41;61.04
22830;BME280;11581;51.250;6.778;2023-05-25T01:55:46;102026.31;;;12.12;60.67
22830;BME280;11581;51.250;6.778;2023-05-25T01:58:14;101937.97;;;11.60;59.26
22830;BME280;11581;51.250;6.778;2023-05-25T02:00:43;101975.75;;;11.77;59.64
22830;BME280;11581;51.250;6.778;2023-05-25T02:03:12;102039.88;;;12.20;59.23
22830;BME280;11581;51.250;6.778;2023-05-25T02:05:40;102047.66;;;12.23;59.84
22830;BME280;11581;51.250;6.778;2023-05-25T02:08:07;101835.44;;;10.97;59.64
22830;BME280;11581;51.250;6.778;2023-05-25T02:10:34;101856.75;;;11.08;59.37
22830;BME280;11581;51.250;6.778;2023-05-25T02:13:01;101965.69;;;11.70;59.05
22830;BME280;11581;51.250;6.778;2023-05-25T02:15:30;102052.31;;;12.21;60.26
22830;BME280;11581;51.250;6.778;2023-05-25T02:17:57;102045.22;;;12.20;59.49
22830;BME280;11581;51.250;6.778;2023-05-25T02:20:27;102021.13;;;11.99;59.82
22830;BME280;11581;51.250;6.778;2023-05-25T02:22:54;102024.75;;;11.98;59.62
22830;BME280;11581;51.250;6.778;2023-05-25T02:25:23;102057.16;;;12.16;59.55
22830;BME280;11581;51.250;6.778;2023-05-25T02:27:50;102033.66;;;11.99;59.12
22830;BME280;11581;51.250;6.778;2023-05-25T02:30:17;101916.56;;;11.28;59.45
22830;BME280;11581;51.250;6.778;2023-05-25T02:32:44;102028.69;;;11.94;59.41
22830;BME280;11581;51.250;6.778;2023-05-25T02:35:11;101961.78;;;11.52;59.71
22830;BME280;11581;51.250;6.778;2023-05-25T02:37:38;101987.78;;;11.61;59.83
22830;BME280;11581;51.250;6.778;2023-05-25T02:40:07;102022.50;;;11.83;59.88
22830;BME280;11581;51.250;6.778;2023-05-25T02:42:35;101963.38;;;11.43;59.90
22830;BME280;11581;51.250;6.778;2023-05-25T02:45:03;102058.59;;;11.77;60.17
22830;BME280;11581;51.250;6.778;2023-05-25T02:47:30;101969.84;;;11.29;60.17
22830;BME280;11581;51.250;6.778;2023-05-25T02:49:57;102076.19;;;11.91;60.43
22830;BME280;11581;51.250;6.778;2023-05-25T02:52:24;101946.94;;;11.16;60.37
22830;BME280;11581;51.250;6.778;2023-05-25T02:54:51;102073.19;;;11.84;60.80
22830;BME280;11581;51.250;6.778;2023-05-25T02:57:24;102025.22;;;11.50;60.65
22830;BME280;11581;51.250;6.778;2023-05-25T02:59:52;101987.09;;;11.25;60.75
22830;BME280;11581;51.250;6.778;2023-05-25T03:02:19;102083.38;;;11.79;60.97
22830;BME280;11581;51.250;6.778;2023-05-25T03:04:50;102040.75;;;11.45;61.13
22830;BME280;11581;51.250;6.778;2023-05-25T03:07:19;102080.25;;;11.74;61.30
22830;BME280;11581;51.250;6.778;2023-05-25T03:09:46;101977.88;;;11.07;61.50
22830;BME280;11581;51.250;6.778;2023-05-25T03:12:14;102062.00;;;11.57;61.49
22830;BME280;11581;51.250;6.778;2023-05-25T03:14:41;102092.28;;;11.69;61.72
22830;BME280;11581;51.250;6.778;2023-05-25T03:17:08;101858.69;;;10.18;61.42
22830;BME280;11581;51.250;6.778;2023-05-25T03:19:35;101897.06;;;10.50;61.71
22830;BME280;11581;51.250;6.778;2023-05-25T03:22:02;102090.78;;;11.65;61.87
22830;BME280;11581;51.250;6.778;2023-05-25T03:24:31;101893.63;;;10.48;61.86
22830;BME280;11581;51.250;6.778;2023-05-25T03:27:00;101962.94;;;10.83;61.68
22830;BME280;11581;51.250;6.778;2023-05-25T03:29:27;102104.41;;;11.62;61.64
22830;BME280;11581;51.250;6.778;2023-05-25T03:31:53;102048.16;;;11.41;62.07
22830;BME280;11581;51.250;6.778;2023-05-25T03:34:23;101951.66;;;10.79;62.21
22830;BME280;11581;51.250;6.778;2023-05-25T03:36:52;102029.81;;;11.25;62.59
22830;BME280;11581;51.250;6.778;2023-05-25T03:39:20;102069.03;;;11.47;62.41
22830;BME280;11581;51.250;6.778;2023-05-25T03:41:48;101958.44;;;10.83;62.18
22830;BME280;11581;51.250;6.778;2023-05-25T03:44:16;102086.66;;;11.50;62.21
22830;BME280;11581;51.250;6.778;2023-05-25T03:46:43;102001.06;;;11.07;62.47
22830;BME280;11581;51.250;6.778;2023-05-25T03:49:11;102068.31;;;11.45;62.39
22830;BME280;11581;51.250;6.778;2023-05-25T03:51:42;102007.38;;;11.06;63.62
22830;BME280;11581;51.250;6.778;2023-05-25T03:54:09;102109.75;;;11.62;62.70
22830;BME280;11581;51.250;6.778;2023-05-25T03:56:36;102090.66;;;11.55;62.81
22830;BME280;11581;51.250;6.778;2023-05-25T03:59:03;101972.53;;;10.85;62.82
22830;BME280;11581;51.250;6.778;2023-05-25T04:01:30;102127.25;;;11.66;62.83
22830;BME280;11581;51.250;6.778;2023-05-25T04:03:57;101967.66;;;10.79;63.04
22830;BME280;11581;51.250;6.778;2023-05-25T04:06:23;102125.19;;;11.69;63.01
22830;BME280;11581;51.250;6.778;2023-05-25T04:08:51;102036.16;;;11.13;63.05
22830;BME280;11581;51.250;6.778;2023-05-25T04:11:18;102119.47;;;11.74;63.21
22830;BME280;11581;51.250;6.778;2023-05-25T04:13:45;102063.81;;;11.23;63.48
22830;BME280;11581;51.250;6.778;2023-05-25T04:16:13;102134.53;;;11.75;63.32
22830;BME280;11581;51.250;6.778;2023-05-25T04:18:42;102056.53;;;11.37;63.52
22830;BME280;11581;51.250;6.778;2023-05-25T04:21:09;102127.38;;;11.86;63.23
22830;BME280;11581;51.250;6.778;2023-05-25T04:23:37;102031.25;;;11.29;63.00
22830;BME280;11581;51.250;6.778;2023-05-25T04:26:05;102119.47;;;11.85;63.43
22830;BME280;11581;51.250;6.778;2023-05-25T04:28:35;102087.88;;;11.68;63.39
22830;BME280;11581;51.250;6.778;2023-05-25T04:31:11;102132.22;;;12.03;63.33
22830;BME280;11581;51.250;6.778;2023-05-25T04:33:47;102090.31;;;11.82;63.33
22830;BME280;11581;51.250;6.778;2023-05-25T04:36:21;102098.06;;;11.96;63.43
22830;BME280;11581;51.250;6.778;2023-05-25T04:38:48;102083.63;;;11.87;63.61
22830;BME280;11581;51.250;6.778;2023-05-25T04:41:16;102076.91;;;11.93;63.63
22830;BME280;11581;51.250;6.778;2023-05-25T04:43:48;102136.59;;;12.47;63.98
22830;BME280;11581;51.250;6.778;2023-05-25T04:46:16;102075.38;;;12.22;63.88
22830;BME280;11581;51.250;6.778;2023-05-25T04:48:43;102067.59;;;12.30;64.09
22830;BME280;11581;51.250;6.778;2023-05-25T04:51:10;102112.56;;;12.67;64.53
22830;BME280;11581;51.250;6.778;2023-05-25T04:53:37;102141.38;;;13.06;64.51
22830;BME280;11581;51.250;6.778;2023-05-25T04:56:03;102136.66;;;13.19;64.88
22830;BME280;11581;51.250;6.778;2023-05-25T04:58:30;102075.09;;;13.08;64.91
22830;BME280;11581;51.250;6.778;2023-05-25T05:00:57;102143.44;;;13.74;64.71
22830;BME280;11581;51.250;6.778;2023-05-25T05:03:24;102124.94;;;14.01;64.85
22830;BME280;11581;51.250;6.778;2023-05-25T05:05:51;102091.19;;;14.08;64.57
22830;BME280;11581;51.250;6.778;2023-05-25T05:08:23;102162.09;;;15.02;64.12
22830;BME280;11581;51.250;6.778;2023-05-25T05:10:49;102116.97;;;15.15;63.57
22830;BME280;11581;51.250;6.778;2023-05-25T05:13:16;102133.19;;;15.89;62.54
22830;BME280;11581;51.250;6.778;2023-05-25T05:15:43;102150.94;;;16.53;61.42
22830;BME280;11581;51.250;6.778;2023-05-25T05:18:10;102135.25;;;17.01;60.38
22830;BME280;11581;51.250;6.778;2023-05-25T05:20:39;102159.53;;;17.70;58.76
22830;BME280;11581;51.250;6.778;2023-05-25T05:23:06;102146.44;;;18.17;57.77
22830;BME280;11581;51.250;6.778;2023-05-25T05:25:33;102088.81;;;18.42;56.02
22830;BME280;11581;51.250;6.778;2023-05-25T05:28:02;102109.94;;;18.94;54.64
22830;BME280;11581;51.250;6.778;2023-05-25T05:30:34;102098.44;;;19.40;53.63
22830;BME280;11581;51.250;6.778;2023-05-25T05:33:02;102126.44;;;20.10;51.79
22830;BME280;11581;51.250;6.778;2023-05-25T05:35:34;102162.75;;;20.85;51.76
22830;BME280;11581;51.250;6.778;2023-05-25T05:38:11;102161.03;;;21.37;50.02
22830;BME280;11581;51.250;6.778;2023-05-25T05:40:38;102143.38;;;21.70;48.59
22830;BME280;11581;51.250;6.778;2023-05-25T05:43:05;102154.03;;;22.30;47.67
22830;BME280;11581;51.250;6.778;2023-05-25T05:45:32;102035.97;;;21.97;46.17
22830;BME280;11581;51.250;6.778;2023-05-25T05:47:59;102127.69;;;23.08;45.38
22830;BME280;11581;51.250;6.778;2023-05-25T05:50:25;102050.22;;;23.04;44.24
22830;BME280;11581;51.250;6.778;2023-05-25T05:52:52;102020.69;;;23.28;43.03
22830;BME280;11581;51.250;6.778;2023-05-25T05:55:18;102057.03;;;23.82;42.15
22830;BME280;11581;51.250;6.778;2023-05-25T05:57:47;102051.97;;;24.40;41.19
22830;BME280;11581;51.250;6.778;2023-05-25T06:00:14;102185.22;;;25.42;40.33
22830;BME280;11581;51.250;6.778;2023-05-25T06:02:42;102158.94;;;25.67;39.86
22830;BME280;11581;51.250;6.778;2023-05-25T06:05:12;102165.13;;;26.26;39.40
22830;BME280;11581;51.250;6.778;2023-05-25T06:07:40;102107.88;;;26.31;38.31
22830;BME280;11581;51.250;6.778;2023-05-25T06:10:08;102185.19;;;27.26;37.56
22830;BME280;11581;51.250;6.778;2023-05-25T06:12:34;102160.59;;;27.44;37.09
22830;BME280;11581;51.250;6.778;2023-05-25T06:15:01;102151.00;;;27.78;36.33
22830;BME280;11581;51.250;6.778;2023-05-25T06:17:28;102188.44;;;28.45;35.41
22830;BME280;11581;51.250;6.778;2023-05-25T06:20:02;102208.59;;;28.98;34.42
22830;BME280;11581;51.250;6.778;2023-05-25T06:22:29;102175.94;;;29.08;33.61
22830;BME280;11581;51.250;6.778;2023-05-25T06:24:57;102122.09;;;29.07;32.54
22830;BME280;11581;51.250;6.778;2023-05-25T06:27:24;102154.97;;;29.25;31.90
22830;BME280;11581;51.250;6.778;2023-05-25T06:29:52;102204.56;;;29.53;31.52
22830;BME280;11581;51.250;6.778;2023-05-25T06:32:18;102160.47;;;29.25;31.88
22830;BME280;11581;51.250;6.778;2023-05-25T06:34:45;102139.75;;;29.11;31.57
22830;BME280;11581;51.250;6.778;2023-05-25T06:37:12;102163.78;;;29.27;31.42
22830;BME280;11581;51.250;6.778;2023-05-25T06:39:40;102150.41;;;29.19;31.44
22830;BME280;11581;51.250;6.778;2023-05-25T06:42:08;102207.59;;;29.63;31.11
22830;BME280;11581;51.250;6.778;2023-05-25T06:44:36;102167.88;;;29.47;31.02
22830;BME280;11581;51.250;6.778;2023-05-25T06:47:08;102149.47;;;29.48;30.69
22830;BME280;11581;51.250;6.778;2023-05-25T06:49:35;102172.59;;;29.70;30.36
22830;BME280;11581;51.250;6.778;2023-05-25T06:52:01;102171.38;;;29.89;30.22
22830;BME280;11581;51.250;6.778;2023-05-25T06:54:28;102191.06;;;30.09;29.54
22830;BME280;11581;51.250;6.778;2023-05-25T06:56:55;102223.59;;;30.35;29.86
22830;BME280;11581;51.250;6.778;2023-05-25T06:59:21;102226.56;;;30.45;29.77
22830;BME280;11581;51.250;6.778;2023-05-25T07:01:51;102196.88;;;30.47;28.24
22830;BME280;11581;51.250;6.778;2023-05-25T07:04:18;102121.91;;;30.17;29.12
22830;BME280;11581;51.250;6.778;2023-05-25T07:06:46;102169.72;;;30.79;28.64
22830;BME280;11581;51.250;6.778;2023-05-25T07:09:13;101880.72;;;29.22;28.43
22830;BME280;11581;51.250;6.778;2023-05-25T07:11:40;102229.94;;;31.64;27.82
22830;BME280;11581;51.250;6.778;2023-05-25T07:14:07;102114.25;;;31.20;27.82
22830;BME280;11581;51.250;6.778;2023-05-25T07:16:34;102167.78;;;31.73;27.72
22830;BME280;11581;51.250;6.778;2023-05-25T07:19:00;102172.72;;;32.09;27.65
22830;BME280;11581;51.250;6.778;2023-05-25T07:21:30;102199.03;;;32.60;25.46
22830;BME280;11581;51.250;6.778;2023-05-25T07:23:57;102217.00;;;33.06;26.11
22830;BME280;11581;51.250;6.778;2023-05-25T07:26:24;102218.63;;;33.33;25.85
22830;BME280;11581;51.250;6.778;2023-05-25T07:28:52;102238.56;;;33.67;25.26
22830;BME280;11581;51.250;6.778;2023-05-25T07:31:19;102227.69;;;33.87;25.23
22830;BME280;11581;51.250;6.778;2023-05-25T07:33:46;102223.84;;;33.93;24.98
22830;BME280;11581;51.250;6.778;2023-05-25T07:36:13;102206.75;;;34.06;24.98
22830;BME280;11581;51.250;6.778;2023-05-25T07:38:39;102185.16;;;34.03;24.69
22830;BME280;11581;51.250;6.778;2023-05-25T07:41:06;102245.50;;;34.58;24.04
22830;BME280;11581;51.250;6.778;2023-05-25T07:43:34;102241.69;;;34.74;23.74
22830;BME280;11581;51.250;6.778;2023-05-25T07:46:01;102243.94;;;34.82;23.52
22830;BME280;11581;51.250;6.778;2023-05-25T07:48:28;102187.06;;;34.54;23.47
22830;BME280;11581;51.250;6.778;2023-05-25T07:50:54;102222.84;;;34.76;23.20
22830;BME280;11581;51.250;6.778;2023-05-25T07:53:22;102221.56;;;35.03;23.03
22830;BME280;11581;51.250;6.778;2023-05-25T07:55:49;102243.22;;;35.31;22.48
22830;BME280;11581;51.250;6.778;2023-05-25T07:58:15;102199.66;;;35.12;22.17
22830;BME280;11581;51.250;6.778;2023-05-25T08:00:42;102203.28;;;35.12;22.06
22830;BME280;11581;51.250;6.778;2023-05-25T08:03:09;102216.56;;;35.10;22.04
22830;BME280;11581;51.250;6.778;2023-05-25T08:05:36;102171.00;;;34.61;21.95
22830;BME280;11581;51.250;6.778;2023-05-25T08:08:03;102247.59;;;34.87;22.11
22830;BME280;11581;51.250;6.778;2023-05-25T08:10:29;102248.31;;;34.68;22.27
22830;BME280;11581;51.250;6.778;2023-05-25T08:12:57;102197.94;;;34.14;22.07
22830;BME280;11581;51.250;6.778;2023-05-25T08:15:24;102103.56;;;33.27;22.23
22830;BME280;11581;51.250;6.778;2023-05-25T08:17:51;102215.06;;;33.69;22.67
22830;BME280;11581;51.250;6.778;2023-05-25T08:20:18;102262.44;;;33.78;22.85
22830;BME280;11581;51.250;6.778;2023-05-25T08:22:45;102234.31;;;33.54;22.93
22830;BME280;11581;51.250;6.778;2023-05-25T08:25:11;102252.34;;;33.62;22.55
22830;BME280;11581;51.250;6.778;2023-05-25T08:27:38;102245.94;;;33.56;22.90
22830;BME280;11581;51.250;6.778;2023-05-25T08:30:06;102241.91;;;33.37;23.23
22830;BME280;11581;51.250;6.778;2023-05-25T08:32:33;102231.69;;;33.38;23.31
22830;BME280;11581;51.250;6.778;2023-05-25T08:34:59;102237.25;;;33.43;23.19
22830;BME280;11581;51.250;6.778;2023-05-25T08:37:27;102224.81;;;33.45;23.35
22830;BME280;11581;51.250;6.778;2023-05-25T08:39:54;102272.81;;;33.92;23.17
22830;BME280;11581;51.250;6.778;2023-05-25T08:42:21;102192.72;;;33.81;22.89
22830;BME280;11581;51.250;6.778;2023-05-25T08:44:48;102278.75;;;34.53;22.41
22830;BME280;11581;51.250;6.778;2023-05-25T08:47:16;102239.19;;;34.72;22.26
22830;BME280;11581;51.250;6.778;2023-05-25T08:49:43;102262.06;;;35.19;22.20
22830;BME280;11581;51.250;6.778;2023-05-25T08:52:13;102237.16;;;35.54;21.14
22830;BME280;11581;51.250;6.778;2023-05-25T08:54:42;102155.59;;;35.45;20.87
22830;BME280;11581;51.250;6.778;2023-05-25T09:00:07;102266.25;;;36.86;20.04
22830;BME280;11581;51.250;6.778;2023-05-25T09:02:44;102251.63;;;37.14;19.51
22830;BME280;11581;51.250;6.778;2023-05-25T09:05:14;102215.53;;;37.09;19.65
22830;BME280;11581;51.250;6.778;2023-05-25T09:07:42;102239.34;;;37.25;19.47
22830;BME280;11581;51.250;6.778;2023-05-25T09:10:10;102229.22;;;37.39;19.72
22830;BME280;11581;51.250;6.778;2023-05-25T09:12:38;102159.00;;;37.13;19.14
22830;BME280;11581;51.250;6.778;2023-05-25T09:15:05;102096.59;;;36.96;19.18
22830;BME280;11581;51.250;6.778;2023-05-25T09:17:32;102260.28;;;38.13;18.90
22830;BME280;11581;51.250;6.778;2023-05-25T09:19:58;102155.47;;;37.70;18.59
22830;BME280;11581;51.250;6.778;2023-05-25T09:22:25;102184.03;;;38.04;17.95
22830;BME280;11581;51.250;6.778;2023-05-25T09:24:52;102222.44;;;38.07;17.66
22830;BME280;11581;51.250;6.778;2023-05-25T09:27:21;102215.41;;;37.86;17.78
22830;BME280;11581;51.250;6.778;2023-05-25T09:29:51;102134.81;;;37.14;17.76
22830;BME280;11581;51.250;6.778;2023-05-25T09:32:18;102258.44;;;37.75;18.45
22830;BME280;11581;51.250;6.778;2023-05-25T09:34:45;102214.00;;;37.26;18.25
22830;BME280;11581;51.250;6.778;2023-05-25T09:37:14;102175.75;;;37.08;18.32
22830;BME280;11581;51.250;6.778;2023-05-25T09:39:43;102269.94;;;37.58;18.48
22830;BME280;11581;51.250;6.778;2023-05-25T09:42:10;102196.44;;;37.31;18.53
22830;BME280;11581;51.250;6.778;2023-05-25T09:44:38;102183.13;;;37.28;18.20
22830;BME280;11581;51.250;6.778;2023-05-25T09:47:06;102225.69;;;37.62;18.33
22830;BME280;11581;51.250;6.778;2023-05-25T09:49:37;102212.16;;;37.50;17.40
22830;BME280;11581;51.250;6.778;2023-05-25T09:52:05;102226.16;;;37.40;17.74
22830;BME280;11581;51.250;6.778;2023-05-25T09:54:32;102202.22;;;37.06;17.87
22830;BME280;11581;51.250;6.778;2023-05-25T09:57:01;102190.16;;;36.72;17.53
22830;BME280;11581;51.250;6.778;2023-05-25T09:59:29;102153.72;;;36.25;18.15
22830;BME280;11581;51.250;6.778;2023-05-25T10:01:57;102265.22;;;36.72;18.24
22830;BME280;11581;51.250;6.778;2023-05-25T10:04:24;102247.84;;;36.26;18.60
22830;BME280;11581;51.250;6.778;2023-05-25T10:06:51;102268.97;;;36.32;18.81
22830;BME280;11581;51.250;6.778;2023-05-25T10:09:21;102267.88;;;36.28;19.12
22830;BME280;11581;51.250;6.778;2023-05-25T10:11:50;102274.25;;;36.34;18.98
22830;BME280;11581;51.250;6.778;2023-05-25T10:14:22;102232.69;;;35.93;18.54
22830;BME280;11581;51.250;6.778;2023-05-25T10:16:52;102254.09;;;35.88;18.30
22830;BME280;11581;51.250;6.778;2023-05-25T10:19:40;102226.63;;;35.51;19.41
22830;BME280;11581;51.250;6.778;2023-05-25T10:22:20;102273.22;;;35.49;18.99
22830;BME280;11581;51.250;6.778;2023-05-25T10:30:21;102237.53;;;34.71;19.77
22830;BME280;11581;51.250;6.778;2023-05-25T10:32:48;102241.91;;;34.57;19.81
22830;BME280;11581;51.250;6.778;2023-05-25T10:35:16;102158.91;;;33.69;19.72
22830;BME280;11581;51.250;6.778;2023-05-25T10:37:43;102253.91;;;33.84;20.15
22830;BME280;11581;51.250;6.778;2023-05-25T10:40:12;102280.97;;;33.46;20.16
22830;BME280;11581;51.250;6.778;2023-05-25T10:42:40;102300.63;;;33.23;20.97
22830;BME280;11581;51.250;6.778;2023-05-25T10:45:07;102255.81;;;32.73;21.40
22830;BME280;11581;51.250;6.778;2023-05-25T10:47:38;102289.16;;;32.66;21.17
22830;BME280;11581;51.250;6.778;2023-05-25T10:50:17;102273.03;;;32.80;21.53
22830;BME280;11581;51.250;6.778;2023-05-25T10:52:44;102291.03;;;33.04;21.87
22830;BME280;11581;51.250;6.778;2023-05-25T10:55:11;102172.09;;;32.46;21.73
22830;BME280;11581;51.250;6.778;2023-05-25T10:57:37;102239.63;;;33.03;21.39
22830;BME280;11581;51.250;6.778;2023-05-25T11:00:05;102227.81;;;33.12;21.57
22830;BME280;11581;51.250;6.778;2023-05-25T11:02:53;102241.69;;;33.44;21.49
22830;BME280;11581;51.250;6.778;2023-05-25T11:07:56;102285.75;;;34.24;20.53
22830;BME280;11581;51.250;6.778;2023-05-25T11:18:43;102260.94;;;34.39;19.89
22830;BME280;11581;51.250;6.778;2023-05-25T11:26:24;102280.19;;;34.19;20.24
22830;BME280;11581;51.250;6.778;2023-05-25T11:28:52;102227.19;;;33.63;20.68
22830;BME280;11581;51.250;6.778;2023-05-25T11:33:54;102275.66;;;33.71;20.66
22830;BME280;11581;51.250;6.778;2023-05-25T11:36:22;102278.28;;;33.56;20.74
22830;BME280;11581;51.250;6.778;2023-05-25T11:38:49;102250.38;;;33.31;20.96
22830;BME280;11581;51.250;6.778;2023-05-25T11:41:23;102195.09;;;32.78;21.05
22830;BME280;11581;51.250;6.778;2023-05-25T11:43:52;102225.72;;;32.98;21.24
22830;BME280;11581;51.250;6.778;2023-05-25T11:46:20;102177.31;;;32.69;21.20
22830;BME280;11581;51.250;6.778;2023-05-25T11:48:51;102243.16;;;32.98;20.98
22830;BME280;11581;51.250;6.778;2023-05-25T11:51:27;102273.81;;;32.97;21.16
22830;BME280;11581;51.250;6.778;2023-05-25T11:53:54;102269.09;;;32.76;21.42
22830;BME280;11581;51.250;6.778;2023-05-25T11:56:21;102118.25;;;31.62;21.59
22830;BME280;11581;51.250;6.778;2023-05-25T11:58:49;102214.72;;;31.95;21.43
22830;BME280;11581;51.250;6.778;2023-05-25T12:01:18;102285.22;;;32.02;21.69
22830;BME280;11581;51.250;6.778;2023-05-25T12:03:46;102270.13;;;31.77;22.21
22830;BME280;11581;51.250;6.778;2023-05-25T12:08:56;102176.66;;;30.81;22.50
22830;BME280;11581;51.250;6.778;2023-05-25T12:11:30;102262.72;;;31.16;22.67
22830;BME280;11581;51.250;6.778;2023-05-25T12:13:59;102215.81;;;30.72;23.08
22830;BME280;11581;51.250;6.778;2023-05-25T12:16:27;102240.72;;;30.77;22.85
22830;BME280;11581;51.250;6.778;2023-05-25T12:18:54;102226.81;;;30.44;22.93
22830;BME280;11581;51.250;6.778;2023-05-25T12:21:22;102210.91;;;30.11;23.27
22830;BME280;11581;51.250;6.778;2023-05-25T12:23:49;102164.34;;;29.70;23.80
22830;BME280;11581;51.250;6.778;2023-05-25T12:26:17;102189.91;;;29.70;24.02
22830;BME280;11581;51.250;6.778;2023-05-25T12:31:27;102169.66;;;29.19;23.82
22830;BME280;11581;51.250;6.778;2023-05-25T12:34:10;102249.47;;;29.35;24.91
22830;BME280;11581;51.250;6.778;2023-05-25T12:36:50;102182.84;;;28.69;25.08
22830;BME280;11581;51.250;6.778;2023-05-25T12:42:01;102223.22;;;28.51;25.34
22830;BME280;11581;51.250;6.778;2023-05-25T12:44:31;102257.88;;;28.45;25.56
22830;BME280;11581;51.250;6.778;2023-05-25T12:49:42;102191.34;;;27.71;25.85
22830;BME280;11581;51.250;6.778;2023-05-25T12:52:10;102233.22;;;27.78;25.84
22830;BME280;11581;51.250;6.778;2023-05-25T12:54:43;102241.28;;;27.73;26.49
22830;BME280;11581;51.250;6.778;2023-05-25T12:57:15;102243.91;;;27.61;26.79
22830;BME280;11581;51.250;6.778;2023-05-25T12:59:46;102121.06;;;26.78;26.80
22830;BME280;11581;51.250;6.778;2023-05-25T13:02:13;102237.09;;;27.46;27.00
22830;BME280;11581;51.250;6.778;2023-05-25T13:04:41;102238.84;;;27.40;26.73
22830;BME280;11581;51.250;6.778;2023-05-25T13:07:09;102205.84;;;27.22;26.68
22830;BME280;11581;51.250;6.778;2023-05-25T13:09:36;102174.84;;;26.97;26.54
22830;BME280;11581;51.250;6.778;2023-05-25T13:12:03;102230.66;;;27.34;26.96
22830;BME280;11581;51.250;6.778;2023-05-25T13:14:30;102206.50;;;27.18;26.95
22830;BME280;11581;51.250;6.778;2023-05-25T13:16:57;102171.75;;;26.87;27.15
22830;BME280;11581;51.250;6.778;2023-05-25T13:19:24;102227.78;;;27.16;26.76
22830;BME280;11581;51.250;6.778;2023-05-25T13:21:51;102195.19;;;26.77;27.10
22830;BME280;11581;51.250;6.778;2023-05-25T13:24:21;102157.69;;;26.40;27.36
22830;BME280;11581;51.250;6.778;2023-05-25T13:26:48;102222.84;;;26.62;27.44
22830;BME280;11581;51.250;6.778;2023-05-25T13:29:15;102223.31;;;26.46;27.42
22830;BME280;11581;51.250;6.778;2023-05-25T13:31:42;102126.16;;;25.60;27.45
22830;BME280;11581;51.250;6.778;2023-05-25T13:34:08;102143.19;;;25.56;28.12
22830;BME280;11581;51.250;6.778;2023-05-25T13:36:35;102203.50;;;25.61;28.37
22830;BME280;11581;51.250;6.778;2023-05-25T13:39:01;102158.09;;;25.08;29.00